sensor_id;sensor_type;location;lat;lon;timestamp;P1;durP1;ratioP1;P2;durP2;ratioP2
20497;SDS011;10407;53.238;10.448;2023-04-24T00:02:04;79.77;;;7.03;;
20497;SDS011;10407;53.238;10.448;2023-04-24T00:04:32;76.77;;;6.63;;
20497;SDS011;10407;53.238;10.448;2023-04-24T00:07:00;75.57;;;6.57;;
20497;SDS011;10407;53.238;10.448;2023-04-24T00:09:28;84.07;;;7.03;;
20497;SDS011;10407;53.238;10.448;2023-04-24T00:11:56;75.30;;;6.67;;
20497;SDS011;10407;53.238;10.448;2023-04-24T00:14:23;75.80;;;6.67;;
20497;SDS011;10407;53.238;10.448;2023-04-24T00:16:51;75.20;;;6.23;;
20497;SDS011;10407;53.238;10.448;2023-04-24T00:19:18;73.50;;;6.73;;
20497;SDS011;10407;53.238;10.448;2023-04-24T00:21:47;77.00;;;7.30;;
20497;SDS011;10407;53.238;10.448;2023-04-24T00:24:17;78.30;;;7.07;;
20497;SDS011;10407;53.238;10.448;2023-04-24T00:26:45;77.30;;;7.37;;
20497;SDS011;10407;53.238;10.448;2023-04-24T00:29:13;77.10;;;6.40;;
20497;SDS011;10407;53.238;10.448;2023-04-24T00:31:40;78.80;;;7.30;;
20497;SDS011;10407;53.238;10.448;2023-04-24T00:34:08;78.07;;;6.67;;
20497;SDS011;10407;53.238;10.448;2023-04-24T00:36:36;76.10;;;6.20;;
20497;SDS011;10407;53.238;10.448;2023-04-24T00:39:03;75.90;;;6.67;;
20497;SDS011;10407;53.238;10.448;2023-04-24T00:41:31;76.50;;;7.47;;
20497;SDS011;10407;53.238;10.448;2023-04-24T00:43:58;76.40;;;7.07;;
20497;SDS011;10407;53.238;10.448;2023-04-24T00:46:26;75.17;;;6.20;;
20497;SDS011;10407;53.238;10.448;2023-04-24T00:48:54;75.57;;;6.60;;
20497;SDS011;10407;53.238;10.448;2023-04-24T00:51:23;76.20;;;6.60;;
20497;SDS011;10407;53.238;10.448;2023-04-24T00:53:50;75.30;;;6.17;;
20497;SDS011;10407;53.238;10.448;2023-04-24T00:56:18;78.73;;;6.60;;
20497;SDS011;10407;53.238;10.448;2023-04-24T00:58:46;77.23;;;6.97;;
20497;SDS011;10407;53.238;10.448;2023-04-24T01:01:14;81.90;;;6.37;;
20497;SDS011;10407;53.238;10.448;2023-04-24T01:03:42;75.27;;;6.53;;
20497;SDS011;10407;53.238;10.448;2023-04-24T01:06:10;76.40;;;6.87;;
20497;SDS011;10407;53.238;10.448;2023-04-24T01:08:37;76.73;;;7.13;;
20497;SDS011;10407;53.238;10.448;2023-04-24T01:11:06;75.90;;;6.70;;
20497;SDS011;10407;53.238;10.448;2023-04-24T01:13:34;78.43;;;6.83;;
20497;SDS011;10407;53.238;10.448;2023-04-24T01:16:02;76.70;;;6.90;;
20497;SDS011;10407;53.238;10.448;2023-04-24T01:18:29;75.50;;;6.50;;
20497;SDS011;10407;53.238;10.448;2023-04-24T01:20:58;76.80;;;7.07;;
20497;SDS011;10407;53.238;10.448;2023-04-24T01:23:27;74.93;;;6.30;;
20497;SDS011;10407;53.238;10.448;2023-04-24T01:25:55;75.47;;;6.23;;
20497;SDS011;10407;53.238;10.448;2023-04-24T01:28:22;73.53;;;6.00;;
20497;SDS011;10407;53.238;10.448;2023-04-24T01:30:50;75.77;;;6.27;;
20497;SDS011;10407;53.238;10.448;2023-04-24T01:33:18;75.07;;;5.67;;
20497;SDS011;10407;53.238;10.448;2023-04-24T01:35:48;77.90;;;6.00;;
20497;SDS011;10407;53.238;10.448;2023-04-24T01:38:16;75.20;;;6.10;;
20497;SDS011;10407;53.238;10.448;2023-04-24T01:40:44;74.23;;;5.80;;
20497;SDS011;10407;53.238;10.448;2023-04-24T01:43:12;74.80;;;5.37;;
20497;SDS011;10407;53.238;10.448;2023-04-24T01:45:40;72.67;;;5.07;;
20497;SDS011;10407;53.238;10.448;2023-04-24T01:48:07;75.37;;;5.77;;
20497;SDS011;10407;53.238;10.448;2023-04-24T01:50:35;75.10;;;5.70;;
20497;SDS011;10407;53.238;10.448;2023-04-24T01:53:02;82.40;;;7.73;;
20497;SDS011;10407;53.238;10.448;2023-04-24T01:55:30;76.80;;;7.70;;
20497;SDS011;10407;53.238;10.448;2023-04-24T01:57:58;74.73;;;5.33;;
20497;SDS011;10407;53.238;10.448;2023-04-24T02:00:28;73.27;;;5.50;;
20497;SDS011;10407;53.238;10.448;2023-04-24T02:02:55;73.97;;;5.77;;
20497;SDS011;10407;53.238;10.448;2023-04-24T02:05:23;74.27;;;6.00;;
20497;SDS011;10407;53.238;10.448;2023-04-24T02:07:51;74.10;;;5.20;;
20497;SDS011;10407;53.238;10.448;2023-04-24T02:10:18;74.00;;;5.53;;
20497;SDS011;10407;53.238;10.448;2023-04-24T02:12:46;73.47;;;5.33;;
20497;SDS011;10407;53.238;10.448;2023-04-24T02:15:13;73.70;;;5.50;;
20497;SDS011;10407;53.238;10.448;2023-04-24T02:17:42;75.67;;;5.50;;
20497;SDS011;10407;53.238;10.448;2023-04-24T02:20:10;72.60;;;4.80;;
20497;SDS011;10407;53.238;10.448;2023-04-24T02:22:38;72.70;;;5.47;;
20497;SDS011;10407;53.238;10.448;2023-04-24T02:25:05;74.20;;;5.80;;
20497;SDS011;10407;53.238;10.448;2023-04-24T02:27:33;74.17;;;4.70;;
20497;SDS011;10407;53.238;10.448;2023-04-24T02:30:01;73.93;;;4.70;;
20497;SDS011;10407;53.238;10.448;2023-04-24T02:32:28;73.40;;;5.37;;
20497;SDS011;10407;53.238;10.448;2023-04-24T02:34:56;72.77;;;4.73;;
20497;SDS011;10407;53.238;10.448;2023-04-24T02:37:25;73.33;;;4.97;;
20497;SDS011;10407;53.238;10.448;2023-04-24T02:39:52;73.83;;;5.40;;
20497;SDS011;10407;53.238;10.448;2023-04-24T02:42:20;73.57;;;5.67;;
20497;SDS011;10407;53.238;10.448;2023-04-24T02:44:47;82.30;;;5.63;;
20497;SDS011;10407;53.238;10.448;2023-04-24T02:47:16;74.50;;;5.50;;
20497;SDS011;10407;53.238;10.448;2023-04-24T02:49:44;73.67;;;5.17;;
20497;SDS011;10407;53.238;10.448;2023-04-24T02:52:11;74.87;;;4.83;;
20497;SDS011;10407;53.238;10.448;2023-04-24T02:54:40;77.03;;;5.23;;
20497;SDS011;10407;53.238;10.448;2023-04-24T02:57:08;74.17;;;5.30;;
20497;SDS011;10407;53.238;10.448;2023-04-24T02:59:35;72.37;;;4.30;;
20497;SDS011;10407;53.238;10.448;2023-04-24T03:02:03;73.20;;;5.30;;
20497;SDS011;10407;53.238;10.448;2023-04-24T03:04:31;73.87;;;5.30;;
20497;SDS011;10407;53.238;10.448;2023-04-24T03:06:58;73.53;;;5.67;;
20497;SDS011;10407;53.238;10.448;2023-04-24T03:09:26;76.63;;;5.30;;
20497;SDS011;10407;53.238;10.448;2023-04-24T03:11:54;74.00;;;5.30;;
20497;SDS011;10407;53.238;10.448;2023-04-24T03:14:22;74.57;;;5.30;;
20497;SDS011;10407;53.238;10.448;2023-04-24T03:16:49;74.50;;;5.80;;
20497;SDS011;10407;53.238;10.448;2023-04-24T03:19:17;73.43;;;6.00;;
20497;SDS011;10407;53.238;10.448;2023-04-24T03:21:44;74.30;;;4.97;;
20497;SDS011;10407;53.238;10.448;2023-04-24T03:24:12;77.27;;;5.03;;
20497;SDS011;10407;53.238;10.448;2023-04-24T03:26:39;73.87;;;5.17;;
20497;SDS011;10407;53.238;10.448;2023-04-24T03:29:07;74.60;;;4.53;;
20497;SDS011;10407;53.238;10.448;2023-04-24T03:31:34;72.90;;;4.10;;
20497;SDS011;10407;53.238;10.448;2023-04-24T03:34:02;74.37;;;4.50;;
20497;SDS011;10407;53.238;10.448;2023-04-24T03:36:29;74.73;;;4.40;;
20497;SDS011;10407;53.238;10.448;2023-04-24T03:38:57;73.20;;;4.10;;
20497;SDS011;10407;53.238;10.448;2023-04-24T03:41:25;73.63;;;5.30;;
20497;SDS011;10407;53.238;10.448;2023-04-24T03:43:52;73.37;;;4.40;;
20497;SDS011;10407;53.238;10.448;2023-04-24T03:46:20;71.80;;;4.30;;
20497;SDS011;10407;53.238;10.448;2023-04-24T03:48:47;74.07;;;4.77;;
20497;SDS011;10407;53.238;10.448;2023-04-24T03:51:15;73.40;;;4.80;;
20497;SDS011;10407;53.238;10.448;2023-04-24T03:53:43;73.10;;;4.33;;
20497;SDS011;10407;53.238;10.448;2023-04-24T03:56:10;75.30;;;4.67;;
20497;SDS011;10407;53.238;10.448;2023-04-24T03:58:38;72.27;;;4.73;;
20497;SDS011;10407;53.238;10.448;2023-04-24T04:01:05;73.20;;;5.60;;
20497;SDS011;10407;53.238;10.448;2023-04-24T04:03:33;74.37;;;5.03;;
20497;SDS011;10407;53.238;10.448;2023-04-24T04:06:00;72.43;;;4.20;;
20497;SDS011;10407;53.238;10.448;2023-04-24T04:08:28;72.93;;;4.47;;
20497;SDS011;10407;53.238;10.448;2023-04-24T04:10:56;74.47;;;4.23;;
20497;SDS011;10407;53.238;10.448;2023-04-24T04:13:23;73.40;;;4.63;;
20497;SDS011;10407;53.238;10.448;2023-04-24T04:15:51;75.20;;;5.00;;
20497;SDS011;10407;53.238;10.448;2023-04-24T04:18:18;71.70;;;4.37;;
20497;SDS011;10407;53.238;10.448;2023-04-24T04:20:46;72.77;;;4.50;;
20497;SDS011;10407;53.238;10.448;2023-04-24T04:23:13;73.37;;;5.03;;
20497;SDS011;10407;53.238;10.448;2023-04-24T04:25:41;74.23;;;4.77;;
20497;SDS011;10407;53.238;10.448;2023-04-24T04:28:08;74.30;;;4.00;;
20497;SDS011;10407;53.238;10.448;2023-04-24T04:30:36;72.27;;;5.23;;
20497;SDS011;10407;53.238;10.448;2023-04-24T04:33:04;73.77;;;5.07;;
20497;SDS011;10407;53.238;10.448;2023-04-24T04:35:31;76.37;;;6.77;;
20497;SDS011;10407;53.238;10.448;2023-04-24T04:37:58;74.67;;;5.17;;
20497;SDS011;10407;53.238;10.448;2023-04-24T04:40:26;76.47;;;4.60;;
20497;SDS011;10407;53.238;10.448;2023-04-24T04:42:55;72.67;;;4.60;;
20497;SDS011;10407;53.238;10.448;2023-04-24T04:45:24;73.37;;;4.70;;
20497;SDS011;10407;53.238;10.448;2023-04-24T04:47:52;72.10;;;4.53;;
20497;SDS011;10407;53.238;10.448;2023-04-24T04:50:20;73.27;;;5.20;;
20497;SDS011;10407;53.238;10.448;2023-04-24T04:52:48;72.63;;;4.57;;
20497;SDS011;10407;53.238;10.448;2023-04-24T04:55:16;74.20;;;6.20;;
20497;SDS011;10407;53.238;10.448;2023-04-24T04:57:45;76.60;;;4.90;;
20497;SDS011;10407;53.238;10.448;2023-04-24T05:00:13;71.77;;;4.87;;
20497;SDS011;10407;53.238;10.448;2023-04-24T05:02:41;71.87;;;3.97;;
20497;SDS011;10407;53.238;10.448;2023-04-24T05:05:09;71.80;;;4.60;;
20497;SDS011;10407;53.238;10.448;2023-04-24T05:07:36;72.53;;;4.30;;
20497;SDS011;10407;53.238;10.448;2023-04-24T05:10:04;72.90;;;4.17;;
20497;SDS011;10407;53.238;10.448;2023-04-24T05:12:32;72.17;;;4.13;;
20497;SDS011;10407;53.238;10.448;2023-04-24T05:15:00;72.00;;;4.40;;
20497;SDS011;10407;53.238;10.448;2023-04-24T05:17:28;73.23;;;4.23;;
20497;SDS011;10407;53.238;10.448;2023-04-24T05:19:56;73.07;;;5.20;;
20497;SDS011;10407;53.238;10.448;2023-04-24T05:22:23;72.97;;;4.27;;
20497;SDS011;10407;53.238;10.448;2023-04-24T05:24:51;71.57;;;3.50;;
20497;SDS011;10407;53.238;10.448;2023-04-24T05:27:19;74.20;;;4.60;;
20497;SDS011;10407;53.238;10.448;2023-04-24T05:29:47;74.73;;;4.50;;
20497;SDS011;10407;53.238;10.448;2023-04-24T05:32:14;72.87;;;4.50;;
20497;SDS011;10407;53.238;10.448;2023-04-24T05:34:42;74.57;;;5.50;;
20497;SDS011;10407;53.238;10.448;2023-04-24T05:37:09;73.47;;;4.70;;
20497;SDS011;10407;53.238;10.448;2023-04-24T05:39:37;73.27;;;5.07;;
20497;SDS011;10407;53.238;10.448;2023-04-24T05:42:05;73.37;;;4.53;;
20497;SDS011;10407;53.238;10.448;2023-04-24T05:44:33;73.37;;;4.30;;
20497;SDS011;10407;53.238;10.448;2023-04-24T05:47:00;74.47;;;5.40;;
20497;SDS011;10407;53.238;10.448;2023-04-24T05:49:28;75.53;;;4.80;;
20497;SDS011;10407;53.238;10.448;2023-04-24T05:51:56;73.27;;;4.43;;
20497;SDS011;10407;53.238;10.448;2023-04-24T05:54:24;72.93;;;4.30;;
20497;SDS011;10407;53.238;10.448;2023-04-24T05:56:51;73.23;;;4.30;;
20497;SDS011;10407;53.238;10.448;2023-04-24T05:59:21;74.87;;;4.73;;
20497;SDS011;10407;53.238;10.448;2023-04-24T06:01:48;73.97;;;4.80;;
20497;SDS011;10407;53.238;10.448;2023-04-24T06:04:16;72.77;;;4.40;;
20497;SDS011;10407;53.238;10.448;2023-04-24T06:06:43;73.30;;;4.10;;
20497;SDS011;10407;53.238;10.448;2023-04-24T06:09:11;74.30;;;4.27;;
20497;SDS011;10407;53.238;10.448;2023-04-24T06:11:38;73.50;;;4.53;;
20497;SDS011;10407;53.238;10.448;2023-04-24T06:14:06;74.70;;;4.93;;
20497;SDS011;10407;53.238;10.448;2023-04-24T06:16:33;72.73;;;4.10;;
20497;SDS011;10407;53.238;10.448;2023-04-24T06:19:01;72.73;;;4.10;;
20497;SDS011;10407;53.238;10.448;2023-04-24T06:21:28;72.80;;;4.30;;
20497;SDS011;10407;53.238;10.448;2023-04-24T06:23:57;72.97;;;4.63;;
20497;SDS011;10407;53.238;10.448;2023-04-24T06:26:24;75.23;;;4.60;;
20497;SDS011;10407;53.238;10.448;2023-04-24T06:28:52;73.00;;;4.80;;
20497;SDS011;10407;53.238;10.448;2023-04-24T06:31:20;72.47;;;4.13;;
20497;SDS011;10407;53.238;10.448;2023-04-24T06:33:48;73.50;;;3.20;;
20497;SDS011;10407;53.238;10.448;2023-04-24T06:36:16;73.03;;;3.97;;
20497;SDS011;10407;53.238;10.448;2023-04-24T06:38:44;73.00;;;4.17;;
20497;SDS011;10407;53.238;10.448;2023-04-24T06:41:11;74.83;;;4.27;;
20497;SDS011;10407;53.238;10.448;2023-04-24T06:43:39;72.03;;;3.53;;
20497;SDS011;10407;53.238;10.448;2023-04-24T06:46:07;73.67;;;4.17;;
20497;SDS011;10407;53.238;10.448;2023-04-24T06:48:34;72.77;;;3.87;;
20497;SDS011;10407;53.238;10.448;2023-04-24T06:51:02;72.30;;;3.50;;
20497;SDS011;10407;53.238;10.448;2023-04-24T06:53:29;74.30;;;4.13;;
20497;SDS011;10407;53.238;10.448;2023-04-24T06:55:57;72.10;;;4.03;;
20497;SDS011;10407;53.238;10.448;2023-04-24T06:58:25;73.13;;;3.93;;
20497;SDS011;10407;53.238;10.448;2023-04-24T07:00:53;72.30;;;4.10;;
20497;SDS011;10407;53.238;10.448;2023-04-24T07:03:21;72.50;;;4.00;;
20497;SDS011;10407;53.238;10.448;2023-04-24T07:05:48;72.07;;;3.57;;
20497;SDS011;10407;53.238;10.448;2023-04-24T07:08:16;72.10;;;3.83;;
20497;SDS011;10407;53.238;10.448;2023-04-24T07:10:46;72.80;;;3.10;;
20497;SDS011;10407;53.238;10.448;2023-04-24T07:13:13;72.70;;;3.70;;
20497;SDS011;10407;53.238;10.448;2023-04-24T07:15:41;73.00;;;3.10;;
20497;SDS011;10407;53.238;10.448;2023-04-24T07:18:09;73.67;;;3.70;;
20497;SDS011;10407;53.238;10.448;2023-04-24T07:20:36;72.67;;;3.97;;
20497;SDS011;10407;53.238;10.448;2023-04-24T07:23:04;74.67;;;3.43;;
20497;SDS011;10407;53.238;10.448;2023-04-24T07:25:31;73.50;;;3.93;;
20497;SDS011;10407;53.238;10.448;2023-04-24T07:27:59;75.33;;;3.93;;
20497;SDS011;10407;53.238;10.448;2023-04-24T07:30:26;74.60;;;4.30;;
20497;SDS011;10407;53.238;10.448;2023-04-24T07:32:58;76.83;;;3.97;;
20497;SDS011;10407;53.238;10.448;2023-04-24T07:35:26;77.80;;;4.00;;
20497;SDS011;10407;53.238;10.448;2023-04-24T07:37:54;71.20;;;3.17;;
20497;SDS011;10407;53.238;10.448;2023-04-24T07:40:21;72.47;;;3.80;;
20497;SDS011;10407;53.238;10.448;2023-04-24T07:42:49;74.93;;;4.00;;
20497;SDS011;10407;53.238;10.448;2023-04-24T07:45:17;72.43;;;3.40;;
20497;SDS011;10407;53.238;10.448;2023-04-24T07:47:44;74.57;;;4.80;;
20497;SDS011;10407;53.238;10.448;2023-04-24T07:50:12;78.97;;;5.37;;
20497;SDS011;10407;53.238;10.448;2023-04-24T07:52:40;84.73;;;5.77;;
20497;SDS011;10407;53.238;10.448;2023-04-24T07:55:07;88.50;;;8.03;;
20497;SDS011;10407;53.238;10.448;2023-04-24T07:57:34;71.60;;;4.00;;
20497;SDS011;10407;53.238;10.448;2023-04-24T08:00:08;72.27;;;4.43;;
20497;SDS011;10407;53.238;10.448;2023-04-24T08:02:32;71.33;;;3.40;;
20497;SDS011;10407;53.238;10.448;2023-04-24T08:04:59;71.67;;;3.87;;
20497;SDS011;10407;53.238;10.448;2023-04-24T08:07:28;73.60;;;3.60;;
20497;SDS011;10407;53.238;10.448;2023-04-24T08:09:56;71.77;;;3.57;;
20497;SDS011;10407;53.238;10.448;2023-04-24T08:12:25;74.20;;;3.50;;
20497;SDS011;10407;53.238;10.448;2023-04-24T08:14:52;72.40;;;4.37;;
20497;SDS011;10407;53.238;10.448;2023-04-24T08:17:20;72.60;;;3.90;;
20497;SDS011;10407;53.238;10.448;2023-04-24T08:19:47;73.10;;;3.63;;
20497;SDS011;10407;53.238;10.448;2023-04-24T08:22:17;71.60;;;3.90;;
20497;SDS011;10407;53.238;10.448;2023-04-24T08:24:44;71.20;;;3.90;;
20497;SDS011;10407;53.238;10.448;2023-04-24T08:27:12;72.17;;;3.43;;
20497;SDS011;10407;53.238;10.448;2023-04-24T08:29:39;71.93;;;3.70;;
20497;SDS011;10407;53.238;10.448;2023-04-24T08:32:07;73.97;;;4.70;;
20497;SDS011;10407;53.238;10.448;2023-04-24T08:34:34;72.40;;;4.03;;
20497;SDS011;10407;53.238;10.448;2023-04-24T08:37:02;74.23;;;4.37;;
20497;SDS011;10407;53.238;10.448;2023-04-24T08:39:29;72.60;;;4.70;;
20497;SDS011;10407;53.238;10.448;2023-04-24T08:41:57;72.50;;;3.77;;
20497;SDS011;10407;53.238;10.448;2023-04-24T08:44:28;74.40;;;3.63;;
20497;SDS011;10407;53.238;10.448;2023-04-24T08:46:56;74.13;;;3.83;;
20497;SDS011;10407;53.238;10.448;2023-04-24T08:49:24;72.97;;;3.97;;
20497;SDS011;10407;53.238;10.448;2023-04-24T08:51:52;74.70;;;4.50;;
20497;SDS011;10407;53.238;10.448;2023-04-24T08:54:20;74.37;;;4.93;;
20497;SDS011;10407;53.238;10.448;2023-04-24T08:56:48;77.87;;;5.80;;
20497;SDS011;10407;53.238;10.448;2023-04-24T08:59:17;75.60;;;4.63;;
20497;SDS011;10407;53.238;10.448;2023-04-24T09:01:45;76.40;;;5.00;;
20497;SDS011;10407;53.238;10.448;2023-04-24T09:04:15;84.97;;;6.40;;
20497;SDS011;10407;53.238;10.448;2023-04-24T09:06:45;81.83;;;6.57;;
20497;SDS011;10407;53.238;10.448;2023-04-24T09:09:14;74.37;;;5.00;;
20497;SDS011;10407;53.238;10.448;2023-04-24T09:11:44;71.90;;;4.97;;
20497;SDS011;10407;53.238;10.448;2023-04-24T09:14:13;74.97;;;5.17;;
20497;SDS011;10407;53.238;10.448;2023-04-24T09:16:41;74.10;;;5.30;;
20497;SDS011;10407;53.238;10.448;2023-04-24T09:19:09;80.50;;;5.17;;
20497;SDS011;10407;53.238;10.448;2023-04-24T09:21:36;74.33;;;5.27;;
20497;SDS011;10407;53.238;10.448;2023-04-24T09:24:04;73.90;;;4.70;;
20497;SDS011;10407;53.238;10.448;2023-04-24T09:26:36;74.97;;;5.43;;
20497;SDS011;10407;53.238;10.448;2023-04-24T09:29:04;77.27;;;6.37;;
20497;SDS011;10407;53.238;10.448;2023-04-24T09:31:31;73.77;;;5.23;;
20497;SDS011;10407;53.238;10.448;2023-04-24T09:34:00;79.93;;;5.73;;
20497;SDS011;10407;53.238;10.448;2023-04-24T09:36:33;74.50;;;6.43;;
20497;SDS011;10407;53.238;10.448;2023-04-24T09:39:05;75.67;;;6.00;;
20497;SDS011;10407;53.238;10.448;2023-04-24T09:41:38;75.87;;;6.17;;
20497;SDS011;10407;53.238;10.448;2023-04-24T09:44:17;77.00;;;5.70;;
20497;SDS011;10407;53.238;10.448;2023-04-24T09:46:42;76.00;;;5.67;;
20497;SDS011;10407;53.238;10.448;2023-04-24T09:49:15;76.57;;;7.40;;
20497;SDS011;10407;53.238;10.448;2023-04-24T09:51:43;75.27;;;6.10;;
20497;SDS011;10407;53.238;10.448;2023-04-24T09:54:29;76.23;;;6.43;;
20497;SDS011;10407;53.238;10.448;2023-04-24T09:56:47;78.30;;;7.10;;
20497;SDS011;10407;53.238;10.448;2023-04-24T09:59:17;73.90;;;5.10;;
20497;SDS011;10407;53.238;10.448;2023-04-24T10:01:45;74.50;;;5.53;;
20497;SDS011;10407;53.238;10.448;2023-04-24T10:04:15;78.07;;;6.30;;
20497;SDS011;10407;53.238;10.448;2023-04-24T10:06:45;74.90;;;6.40;;
20497;SDS011;10407;53.238;10.448;2023-04-24T10:09:16;77.37;;;6.77;;
20497;SDS011;10407;53.238;10.448;2023-04-24T10:11:46;76.97;;;7.20;;
20497;SDS011;10407;53.238;10.448;2023-04-24T10:14:20;79.87;;;6.63;;
20497;SDS011;10407;53.238;10.448;2023-04-24T10:16:46;76.67;;;6.53;;
20497;SDS011;10407;53.238;10.448;2023-04-24T10:19:14;76.40;;;7.03;;
20497;SDS011;10407;53.238;10.448;2023-04-24T10:21:45;80.83;;;6.97;;
20497;SDS011;10407;53.238;10.448;2023-04-24T10:24:18;82.80;;;7.73;;
20497;SDS011;10407;53.238;10.448;2023-04-24T10:26:44;76.40;;;6.43;;
20497;SDS011;10407;53.238;10.448;2023-04-24T10:29:14;75.43;;;6.43;;
20497;SDS011;10407;53.238;10.448;2023-04-24T10:31:43;76.30;;;6.27;;
20497;SDS011;10407;53.238;10.448;2023-04-24T10:34:15;76.87;;;6.70;;
20497;SDS011;10407;53.238;10.448;2023-04-24T10:36:46;77.63;;;6.80;;
20497;SDS011;10407;53.238;10.448;2023-04-24T10:39:14;78.30;;;7.20;;
20497;SDS011;10407;53.238;10.448;2023-04-24T10:41:42;78.47;;;6.97;;
20497;SDS011;10407;53.238;10.448;2023-04-24T10:44:11;77.93;;;6.77;;
20497;SDS011;10407;53.238;10.448;2023-04-24T10:46:42;77.67;;;7.30;;
20497;SDS011;10407;53.238;10.448;2023-04-24T10:49:11;76.73;;;6.73;;
20497;SDS011;10407;53.238;10.448;2023-04-24T10:51:46;83.47;;;7.93;;
20497;SDS011;10407;53.238;10.448;2023-04-24T10:59:49;76.77;;;6.73;;
20497;SDS011;10407;53.238;10.448;2023-04-24T11:02:19;76.43;;;6.47;;
20497;SDS011;10407;53.238;10.448;2023-04-24T11:04:49;75.30;;;6.97;;
20497;SDS011;10407;53.238;10.448;2023-04-24T11:07:19;77.00;;;7.07;;
20497;SDS011;10407;53.238;10.448;2023-04-24T11:09:47;75.93;;;6.20;;
20497;SDS011;10407;53.238;10.448;2023-04-24T11:12:18;75.00;;;6.47;;
20497;SDS011;10407;53.238;10.448;2023-04-24T11:20:01;76.57;;;6.20;;
20497;SDS011;10407;53.238;10.448;2023-04-24T11:22:38;74.87;;;5.60;;
20497;SDS011;10407;53.238;10.448;2023-04-24T11:25:09;77.13;;;6.53;;
20497;SDS011;10407;53.238;10.448;2023-04-24T11:27:41;75.37;;;5.43;;
20497;SDS011;10407;53.238;10.448;2023-04-24T11:30:10;75.70;;;6.27;;
20497;SDS011;10407;53.238;10.448;2023-04-24T11:32:41;73.77;;;5.73;;
20497;SDS011;10407;53.238;10.448;2023-04-24T11:35:16;75.17;;;6.10;;
20497;SDS011;10407;53.238;10.448;2023-04-24T11:37:50;73.57;;;5.33;;
20497;SDS011;10407;53.238;10.448;2023-04-24T11:40:20;74.07;;;5.00;;
20497;SDS011;10407;53.238;10.448;2023-04-24T11:42:49;76.10;;;5.57;;
20497;SDS011;10407;53.238;10.448;2023-04-24T11:47:51;75.17;;;5.43;;
20497;SDS011;10407;53.238;10.448;2023-04-24T11:50:21;75.17;;;5.93;;
20497;SDS011;10407;53.238;10.448;2023-04-24T11:52:49;74.97;;;5.60;;
20497;SDS011;10407;53.238;10.448;2023-04-24T11:57:49;76.50;;;5.97;;
20497;SDS011;10407;53.238;10.448;2023-04-24T12:00:20;76.10;;;5.47;;
20497;SDS011;10407;53.238;10.448;2023-04-24T12:02:49;76.30;;;4.97;;
20497;SDS011;10407;53.238;10.448;2023-04-24T12:05:20;74.83;;;6.03;;
20497;SDS011;10407;53.238;10.448;2023-04-24T12:07:52;74.40;;;5.50;;
20497;SDS011;10407;53.238;10.448;2023-04-24T12:10:26;74.70;;;5.93;;
20497;SDS011;10407;53.238;10.448;2023-04-24T12:12:51;79.07;;;6.10;;
20497;SDS011;10407;53.238;10.448;2023-04-24T12:15:19;74.90;;;5.93;;
20497;SDS011;10407;53.238;10.448;2023-04-24T12:17:48;73.97;;;6.10;;
20497;SDS011;10407;53.238;10.448;2023-04-24T12:20:31;75.00;;;5.97;;
20497;SDS011;10407;53.238;10.448;2023-04-24T12:22:54;75.57;;;5.50;;
20497;SDS011;10407;53.238;10.448;2023-04-24T12:25:24;80.60;;;6.63;;
20497;SDS011;10407;53.238;10.448;2023-04-24T12:27:54;74.37;;;4.90;;
20497;SDS011;10407;53.238;10.448;2023-04-24T12:30:26;74.87;;;6.23;;
20497;SDS011;10407;53.238;10.448;2023-04-24T12:33:02;73.90;;;5.97;;
20497;SDS011;10407;53.238;10.448;2023-04-24T12:35:31;75.40;;;5.70;;
20497;SDS011;10407;53.238;10.448;2023-04-24T12:38:06;75.10;;;5.50;;
20497;SDS011;10407;53.238;10.448;2023-04-24T12:40:36;75.00;;;5.73;;
20497;SDS011;10407;53.238;10.448;2023-04-24T12:43:12;74.50;;;5.53;;
20497;SDS011;10407;53.238;10.448;2023-04-24T12:45:43;73.37;;;5.23;;
20497;SDS011;10407;53.238;10.448;2023-04-24T12:48:11;74.10;;;5.43;;
20497;SDS011;10407;53.238;10.448;2023-04-24T12:50:39;83.47;;;6.13;;
20497;SDS011;10407;53.238;10.448;2023-04-24T12:53:07;78.37;;;5.07;;
20497;SDS011;10407;53.238;10.448;2023-04-24T12:55:36;72.93;;;5.00;;
20497;SDS011;10407;53.238;10.448;2023-04-24T12:58:04;74.27;;;4.60;;
20497;SDS011;10407;53.238;10.448;2023-04-24T13:00:32;73.70;;;5.10;;
20497;SDS011;10407;53.238;10.448;2023-04-24T13:02:59;73.80;;;5.13;;
20497;SDS011;10407;53.238;10.448;2023-04-24T13:05:28;75.27;;;6.63;;
20497;SDS011;10407;53.238;10.448;2023-04-24T13:07:56;75.47;;;5.00;;
20497;SDS011;10407;53.238;10.448;2023-04-24T13:10:24;75.60;;;6.10;;
20497;SDS011;10407;53.238;10.448;2023-04-24T13:12:51;77.70;;;6.40;;
20497;SDS011;10407;53.238;10.448;2023-04-24T13:15:19;75.57;;;5.23;;
20497;SDS011;10407;53.238;10.448;2023-04-24T13:17:46;73.07;;;5.53;;
20497;SDS011;10407;53.238;10.448;2023-04-24T13:20:14;76.03;;;5.53;;
20497;SDS011;10407;53.238;10.448;2023-04-24T13:22:42;74.97;;;5.07;;
20497;SDS011;10407;53.238;10.448;2023-04-24T13:25:09;78.13;;;7.33;;
20497;SDS011;10407;53.238;10.448;2023-04-24T13:27:38;78.77;;;7.23;;
20497;SDS011;10407;53.238;10.448;2023-04-24T13:30:06;84.10;;;9.03;;
20497;SDS011;10407;53.238;10.448;2023-04-24T13:32:35;73.87;;;5.80;;
20497;SDS011;10407;53.238;10.448;2023-04-24T13:35:03;76.70;;;4.97;;
20497;SDS011;10407;53.238;10.448;2023-04-24T13:37:30;73.43;;;5.50;;
20497;SDS011;10407;53.238;10.448;2023-04-24T13:39:58;72.93;;;4.80;;
20497;SDS011;10407;53.238;10.448;2023-04-24T13:42:25;73.80;;;4.50;;
20497;SDS011;10407;53.238;10.448;2023-04-24T13:44:53;74.40;;;5.43;;
20497;SDS011;10407;53.238;10.448;2023-04-24T13:47:21;73.10;;;4.50;;
20497;SDS011;10407;53.238;10.448;2023-04-24T13:49:48;73.37;;;5.17;;
20497;SDS011;10407;53.238;10.448;2023-04-24T13:52:16;75.00;;;5.30;;
20497;SDS011;10407;53.238;10.448;2023-04-24T13:54:43;73.47;;;4.90;;
20497;SDS011;10407;53.238;10.448;2023-04-24T13:57:13;73.30;;;4.77;;
20497;SDS011;10407;53.238;10.448;2023-04-24T13:59:41;72.87;;;4.30;;
20497;SDS011;10407;53.238;10.448;2023-04-24T14:02:09;72.20;;;5.13;;
20497;SDS011;10407;53.238;10.448;2023-04-24T14:04:36;78.40;;;6.27;;
20497;SDS011;10407;53.238;10.448;2023-04-24T14:07:04;71.77;;;4.40;;
20497;SDS011;10407;53.238;10.448;2023-04-24T14:09:31;73.90;;;5.33;;
20497;SDS011;10407;53.238;10.448;2023-04-24T14:11:59;74.07;;;5.00;;
20497;SDS011;10407;53.238;10.448;2023-04-24T14:14:27;73.50;;;5.10;;
20497;SDS011;10407;53.238;10.448;2023-04-24T14:16:55;71.87;;;4.77;;
20497;SDS011;10407;53.238;10.448;2023-04-24T14:19:23;72.63;;;4.80;;
20497;SDS011;10407;53.238;10.448;2023-04-24T14:21:50;73.40;;;4.83;;
20497;SDS011;10407;53.238;10.448;2023-04-24T14:24:19;74.20;;;5.30;;
20497;SDS011;10407;53.238;10.448;2023-04-24T14:26:46;73.90;;;5.43;;
20497;SDS011;10407;53.238;10.448;2023-04-24T14:29:14;75.10;;;4.87;;
20497;SDS011;10407;53.238;10.448;2023-04-24T14:31:42;74.03;;;5.30;;
20497;SDS011;10407;53.238;10.448;2023-04-24T14:34:11;73.60;;;4.77;;
20497;SDS011;10407;53.238;10.448;2023-04-24T14:36:39;74.53;;;5.53;;
20497;SDS011;10407;53.238;10.448;2023-04-24T14:39:07;73.37;;;4.70;;
20497;SDS011;10407;53.238;10.448;2023-04-24T14:41:34;72.80;;;4.17;;
20497;SDS011;10407;53.238;10.448;2023-04-24T14:44:03;94.37;;;17.03;;